createdAt,value
2023-04-27T00:01:15.104Z,102272.81
2023-04-27T00:03:42.531Z,102269.41
2023-04-27T00:06:09.859Z,102269.56
2023-04-27T00:08:37.687Z,102270.88
2023-04-27T00:11:04.389Z,102280.53
2023-04-27T00:13:30.796Z,102277.25
2023-04-27T00:15:57.388Z,102279.38
2023-04-27T00:18:23.838Z,102279.25
2023-04-27T00:20:51.036Z,102279.97
2023-04-27T00:23:17.568Z,102277.50
2023-04-27T00:25:47.016Z,102287.75
2023-04-27T00:28:13.841Z,102282.34
2023-04-27T00:30:40.903Z,102276.81
2023-04-27T00:33:09.761Z,102278.91
2023-04-27T00:35:36.295Z,102271.84
2023-04-27T00:38:02.954Z,102269.06
2023-04-27T00:40:29.465Z,102264.34
2023-04-27T00:42:55.916Z,102270.84
2023-04-27T00:45:22.448Z,102274.59
2023-04-27T00:47:49.715Z,102275.31
2023-04-27T00:50:25.674Z,102272.13
2023-04-27T00:52:52.195Z,102277.78
2023-04-27T00:55:19.539Z,102276.34
2023-04-27T00:57:47.146Z,102278.38
2023-04-27T01:00:13.987Z,102281.31
2023-04-27T01:02:41.579Z,102281.78
2023-04-27T01:05:09.427Z,102271.91
2023-04-27T01:07:39.894Z,102268.72
2023-04-27T01:10:07.589Z,102261.88
2023-04-27T01:12:35.350Z,102258.81
2023-04-27T01:15:05.511Z,102259.63
2023-04-27T01:17:32.845Z,102259.63
2023-04-27T01:20:02.419Z,102266.09
2023-04-27T01:22:28.893Z,102263.03
2023-04-27T01:24:55.456Z,102264.38
2023-04-27T01:27:23.764Z,102266.47
2023-04-27T01:29:50.672Z,102274.81
2023-04-27T01:32:17.210Z,102276.69
2023-04-27T01:34:46.610Z,102283.13
2023-04-27T01:37:19.826Z,102275.84
2023-04-27T01:39:53.363Z,102276.31
2023-04-27T01:42:24.841Z,102264.66
2023-04-27T01:44:51.380Z,102264.91
2023-04-27T01:47:18.200Z,102260.78
2023-04-27T01:49:44.768Z,102255.00
2023-04-27T01:52:11.193Z,102245.69
2023-04-27T01:54:38.045Z,102247.00
2023-04-27T01:57:06.121Z,102247.47
2023-04-27T01:59:33.386Z,102250.41
2023-04-27T02:02:00.088Z,102249.22
2023-04-27T02:04:26.653Z,102248.84
2023-04-27T02:06:53.268Z,102247.44
2023-04-27T02:09:19.696Z,102255.31
2023-04-27T02:11:46.136Z,102247.44
2023-04-27T02:14:12.573Z,102253.06
2023-04-27T02:16:39.175Z,102252.94
2023-04-27T02:19:05.718Z,102256.09
2023-04-27T02:21:32.789Z,102251.97
2023-04-27T02:23:59.618Z,102255.94
2023-04-27T02:26:29.381Z,102257.25
2023-04-27T02:28:57.116Z,102245.25
2023-04-27T02:31:24.319Z,102249.84
2023-04-27T02:33:51.058Z,102258.41
2023-04-27T02:36:17.627Z,102250.50
2023-04-27T02:38:44.137Z,102243.91
2023-04-27T02:41:10.803Z,102246.25
2023-04-27T02:43:37.289Z,102242.34
2023-04-27T02:46:06.474Z,102239.06
2023-04-27T02:48:33.341Z,102237.03
2023-04-27T02:51:02.790Z,102241.59
2023-04-27T02:53:29.290Z,102234.56
2023-04-27T02:55:55.867Z,102235.03
2023-04-27T02:58:22.675Z,102232.19
2023-04-27T03:00:54.146Z,102231.38
2023-04-27T03:03:20.773Z,102238.03
2023-04-27T03:05:48.756Z,102239.91
2023-04-27T03:08:15.788Z,102240.97
2023-04-27T03:10:42.198Z,102238.13
2023-04-27T03:13:09.596Z,102231.31
2023-04-27T03:15:36.108Z,102235.28
2023-04-27T03:18:02.670Z,102244.88
2023-04-27T03:20:29.192Z,102251.53
2023-04-27T03:22:55.752Z,102251.53
2023-04-27T03:25:22.301Z,102249.06
2023-04-27T03:27:48.890Z,102254.91
2023-04-27T03:30:15.590Z,102256.22
2023-04-27T03:32:42.281Z,102253.97
2023-04-27T03:35:09.968Z,102253.13
2023-04-27T03:37:36.501Z,102248.19
2023-04-27T03:40:07.503Z,102253.81
2023-04-27T03:42:34.886Z,102246.97
2023-04-27T03:45:01.579Z,102250.34
2023-04-27T03:47:28.067Z,102245.63
2023-04-27T03:49:54.626Z,102254.38
2023-04-27T03:52:21.527Z,102257.91
2023-04-27T03:54:48.506Z,102254.38
2023-04-27T03:57:15.026Z,102254.16
2023-04-27T03:59:41.631Z,102253.13
2023-04-27T04:02:09.534Z,102254.38
2023-04-27T04:04:36.910Z,102245.31
2023-04-27T04:07:03.430Z,102251.78
2023-04-27T04:09:29.869Z,102252.81
2023-04-27T04:11:56.548Z,102250.34
2023-04-27T04:14:23.907Z,102255.75
2023-04-27T04:16:51.526Z,102253.88
2023-04-27T04:19:21.976Z,102257.84
2023-04-27T04:21:48.776Z,102258.06
2023-04-27T04:24:15.975Z,102261.19
2023-04-27T04:26:42.888Z,102263.91
2023-04-27T04:29:10.959Z,102264.13
2023-04-27T04:31:38.253Z,102269.50
2023-04-27T04:34:04.877Z,102277.81
2023-04-27T04:36:32.074Z,102277.44
2023-04-27T04:38:58.622Z,102279.31
2023-04-27T04:41:26.285Z,102284.09
2023-04-27T04:43:52.863Z,102277.88
2023-04-27T04:46:19.976Z,102291.34
2023-04-27T04:48:46.964Z,102291.56
2023-04-27T04:51:15.092Z,102291.56
2023-04-27T04:53:41.748Z,102296.97
2023-04-27T04:56:12.899Z,102301.09
2023-04-27T04:58:39.913Z,102295.66
2023-04-27T05:01:06.856Z,102286.91
2023-04-27T05:03:33.587Z,102287.91
2023-04-27T05:06:00.521Z,102282.84
2023-04-27T05:08:26.977Z,102278.06
2023-04-27T05:10:54.262Z,102282.19
2023-04-27T05:13:21.663Z,102282.56
2023-04-27T05:15:48.367Z,102284.59
2023-04-27T05:18:14.905Z,102281.25
2023-04-27T05:20:41.361Z,102283.28
2023-04-27T05:23:07.806Z,102279.47
2023-04-27T05:25:41.308Z,102284.31
2023-04-27T05:28:08.851Z,102277.56
2023-04-27T05:30:35.971Z,102283.72
2023-04-27T05:33:04.063Z,102286.09
2023-04-27T05:35:31.262Z,102285.78
2023-04-27T05:37:58.308Z,102294.56
2023-04-27T05:40:25.038Z,102297.06
2023-04-27T05:42:51.865Z,102293.16
2023-04-27T05:45:18.428Z,102290.88
2023-04-27T05:47:45.457Z,102291.34
2023-04-27T05:50:11.903Z,102289.13
2023-04-27T05:52:39.287Z,102292.56
2023-04-27T05:55:07.901Z,102295.19
2023-04-27T05:57:34.494Z,102295.91
2023-04-27T06:00:01.481Z,102285.44
2023-04-27T06:02:38.948Z,102292.00
2023-04-27T06:05:06.070Z,102290.84
2023-04-27T06:07:32.598Z,102292.03
2023-04-27T06:09:59.084Z,102294.22
2023-04-27T06:12:25.518Z,102294.44
2023-04-27T06:14:51.959Z,102291.69
2023-04-27T06:17:18.440Z,102291.88
2023-04-27T06:19:47.177Z,102295.47
2023-04-27T06:22:13.617Z,102288.31
2023-04-27T06:24:40.311Z,102285.88
2023-04-27T06:27:06.783Z,102290.03
2023-04-27T06:29:33.387Z,102286.63
2023-04-27T06:32:25.520Z,102288.75
2023-04-27T06:34:52.055Z,102284.63
2023-04-27T06:37:18.462Z,102283.91
2023-04-27T06:39:45.012Z,102286.13
2023-04-27T06:42:11.660Z,102284.94
2023-04-27T06:44:38.793Z,102292.00
2023-04-27T06:47:05.513Z,102283.06
2023-04-27T06:49:32.038Z,102280.09
2023-04-27T06:51:58.456Z,102283.72
2023-04-27T06:54:25.014Z,102287.00
2023-04-27T06:56:51.725Z,102287.28
2023-04-27T07:01:53.930Z,102274.75
2023-04-27T07:04:20.672Z,102282.94
2023-04-27T07:06:47.276Z,102287.63
2023-04-27T07:09:26.479Z,102295.75
2023-04-27T07:11:54.253Z,102282.69
2023-04-27T07:14:21.047Z,102281.56
2023-04-27T07:16:47.784Z,102283.28
2023-04-27T07:19:14.587Z,102285.69
2023-04-27T07:21:41.317Z,102287.69
2023-04-27T07:24:07.999Z,102289.03
2023-04-27T07:26:41.465Z,102286.28
2023-04-27T07:29:22.861Z,102283.53
2023-04-27T07:31:55.748Z,102280.81
2023-04-27T07:34:25.423Z,102278.31
2023-04-27T07:36:54.904Z,102280.19
2023-04-27T07:39:23.799Z,102280.47
2023-04-27T07:41:50.741Z,102274.75
2023-04-27T07:44:23.043Z,102275.84
2023-04-27T07:46:49.652Z,102276.78
2023-04-27T07:49:16.445Z,102284.56
2023-04-27T07:51:45.778Z,102277.13
2023-04-27T07:54:14.024Z,102281.53
2023-04-27T07:56:42.858Z,102285.22
2023-04-27T07:59:09.424Z,102281.47
2023-04-27T08:01:36.015Z,102281.38
2023-04-27T08:04:02.652Z,102271.34
2023-04-27T08:06:29.925Z,102281.84
2023-04-27T08:09:00.715Z,102276.13
2023-04-27T08:11:27.387Z,102284.84
2023-04-27T08:13:53.849Z,102287.88
2023-04-27T08:16:22.743Z,102287.97
2023-04-27T08:18:49.676Z,102285.31
2023-04-27T08:21:16.360Z,102271.13
2023-04-27T08:23:43.355Z,102281.78
2023-04-27T08:26:16.153Z,102284.28
2023-04-27T08:28:42.669Z,102273.78
2023-04-27T08:31:09.263Z,102285.41
2023-04-27T08:33:35.738Z,102278.78
2023-04-27T08:36:02.185Z,102278.66
2023-04-27T08:38:28.703Z,102277.41
2023-04-27T08:40:55.218Z,102263.91
2023-04-27T08:43:21.757Z,102266.56
2023-04-27T08:45:53.285Z,102265.88
2023-04-27T08:48:20.688Z,102272.41
2023-04-27T08:50:50.570Z,102273.03
2023-04-27T08:53:22.158Z,102265.56
2023-04-27T08:55:51.098Z,102261.88
2023-04-27T08:58:17.686Z,102271.06
2023-04-27T09:00:47.919Z,102267.84
2023-04-27T09:03:27.231Z,102259.75
2023-04-27T09:06:05.201Z,102270.69
2023-04-27T09:08:45.945Z,102266.97
2023-04-27T09:11:28.022Z,102269.53
2023-04-27T09:13:54.580Z,102266.28
2023-04-27T09:16:25.480Z,102262.22
2023-04-27T09:18:52.293Z,102261.75
2023-04-27T09:21:29.392Z,102259.81
2023-04-27T09:23:56.730Z,102259.28
2023-04-27T09:26:25.915Z,102248.69
2023-04-27T09:28:58.652Z,102260.56
2023-04-27T09:31:37.314Z,102253.34
2023-04-27T09:34:04.002Z,102255.53
2023-04-27T09:36:32.550Z,102245.28
2023-04-27T09:39:05.705Z,102248.66
2023-04-27T09:41:33.388Z,102238.66
2023-04-27T09:44:00.741Z,102249.38
2023-04-27T09:46:29.103Z,102239.34
2023-04-27T09:48:56.498Z,102248.09
2023-04-27T09:51:23.033Z,102249.00
2023-04-27T09:53:52.837Z,102248.41
2023-04-27T09:56:45.285Z,102243.94
2023-04-27T09:59:37.367Z,102240.16
2023-04-27T10:02:16.984Z,102243.72
2023-04-27T10:05:11.779Z,102244.44
2023-04-27T10:07:41.229Z,102242.56
2023-04-27T10:10:17.176Z,102236.94
2023-04-27T10:12:43.735Z,102239.50
2023-04-27T10:15:17.363Z,102241.81
2023-04-27T10:17:51.809Z,102235.34
2023-04-27T10:20:29.337Z,102233.44
2023-04-27T10:22:55.886Z,102240.81
2023-04-27T10:25:26.792Z,102244.41
2023-04-27T10:27:56.424Z,102242.03
2023-04-27T10:30:24.045Z,102229.41
2023-04-27T10:32:54.417Z,102235.91
2023-04-27T10:35:22.192Z,102233.66
2023-04-27T10:37:49.255Z,102227.09
2023-04-27T10:40:19.199Z,102221.28
2023-04-27T10:42:48.184Z,102222.88
2023-04-27T10:45:15.108Z,102230.97
2023-04-27T10:47:45.638Z,102235.22
2023-04-27T10:50:14.195Z,102233.28
2023-04-27T10:52:44.440Z,102226.34
2023-04-27T10:55:19.179Z,102225.25
2023-04-27T10:57:53.501Z,102225.34
2023-04-27T11:00:26.948Z,102215.44
2023-04-27T11:02:54.898Z,102217.75
2023-04-27T11:05:29.761Z,102214.25
2023-04-27T11:08:10.730Z,102208.97
2023-04-27T11:10:50.091Z,102209.44
2023-04-27T11:13:19.144Z,102202.50
2023-04-27T11:15:54.708Z,102193.75
2023-04-27T11:18:24.512Z,102199.50
2023-04-27T11:20:53.942Z,102187.94
2023-04-27T11:23:28.822Z,102185.69
2023-04-27T11:25:58.494Z,102191.75
2023-04-27T11:28:25.070Z,102179.25
2023-04-27T11:31:02.354Z,102182.81
2023-04-27T11:33:29.422Z,102179.47
2023-04-27T11:35:56.715Z,102178.81
2023-04-27T11:38:23.573Z,102180.88
2023-04-27T11:41:01.386Z,102178.72
2023-04-27T11:43:28.221Z,102166.44
2023-04-27T11:45:56.272Z,102170.72
2023-04-27T11:48:29.695Z,102172.97
2023-04-27T11:50:59.224Z,102169.34
2023-04-27T11:53:31.428Z,102172.03
2023-04-27T11:56:01.167Z,102165.38
2023-04-27T11:58:33.309Z,102166.75
2023-04-27T12:00:59.853Z,102168.25
2023-04-27T12:03:28.313Z,102161.81
2023-04-27T12:05:55.050Z,102159.06
2023-04-27T12:08:21.554Z,102159.16
2023-04-27T12:10:48.059Z,102160.25
2023-04-27T12:13:14.888Z,102157.75
2023-04-27T12:15:42.469Z,102163.66
2023-04-27T12:18:09.978Z,102151.75
2023-04-27T12:20:36.698Z,102152.94
2023-04-27T12:23:03.322Z,102155.69
2023-04-27T12:25:30.330Z,102153.59
2023-04-27T12:27:57.274Z,102149.81
2023-04-27T12:30:24.016Z,102141.13
2023-04-27T12:32:51.244Z,102139.56
2023-04-27T12:35:18.185Z,102134.88
2023-04-27T12:37:44.718Z,102129.91
2023-04-27T12:40:11.445Z,102127.91
2023-04-27T12:42:37.958Z,102132.22
2023-04-27T12:45:05.016Z,102132.13
2023-04-27T12:47:54.060Z,102116.16
2023-04-27T12:50:22.354Z,102117.66
2023-04-27T12:52:51.246Z,102130.09
2023-04-27T12:55:31.318Z,102127.59
2023-04-27T12:58:00.428Z,102122.47
2023-04-27T13:00:27.525Z,102120.50
2023-04-27T13:02:54.208Z,102118.56
2023-04-27T13:05:22.090Z,102116.72
2023-04-27T13:07:49.075Z,102118.47
2023-04-27T13:10:16.185Z,102110.47
2023-04-27T13:12:42.751Z,102115.97
2023-04-27T13:15:10.106Z,102116.22
2023-04-27T13:17:40.193Z,102117.22
2023-04-27T13:20:10.500Z,102115.66
2023-04-27T13:22:37.740Z,102107.22
2023-04-27T13:25:13.263Z,102094.84
2023-04-27T13:27:39.874Z,102093.19
2023-04-27T13:30:08.289Z,102090.47
2023-04-27T13:32:34.887Z,102084.78
2023-04-27T13:35:01.313Z,102086.03
2023-04-27T13:37:27.751Z,102083.97
2023-04-27T13:39:54.159Z,102077.69
2023-04-27T13:42:20.741Z,102085.47
2023-04-27T13:44:47.251Z,102080.25
2023-04-27T13:47:15.148Z,102067.69
2023-04-27T13:49:41.681Z,102066.25
2023-04-27T13:52:08.173Z,102065.94
2023-04-27T13:54:34.682Z,102063.78
2023-04-27T13:57:03.335Z,102068.22
2023-04-27T13:59:30.403Z,102066.81
2023-04-27T14:01:56.923Z,102063.38
2023-04-27T14:04:23.441Z,102061.38
2023-04-27T14:06:50.984Z,102051.34
2023-04-27T14:09:18.194Z,102053.25
2023-04-27T14:11:55.787Z,102035.59
2023-04-27T14:14:23.639Z,102042.03
2023-04-27T14:16:51.591Z,102036.09
2023-04-27T14:19:20.156Z,102036.72
2023-04-27T14:21:47.667Z,102035.91
2023-04-27T14:24:14.293Z,102037.38
2023-04-27T14:26:43.908Z,102026.63
2023-04-27T14:29:11.590Z,102029.59
2023-04-27T14:31:39.324Z,102016.44
2023-04-27T14:34:06.419Z,102026.78
2023-04-27T14:36:33.751Z,102016.00
2023-04-27T14:39:01.130Z,102013.81
2023-04-27T14:41:28.295Z,102008.25
2023-04-27T14:43:54.938Z,102018.72
2023-04-27T14:46:22.074Z,102018.25
2023-04-27T14:48:49.241Z,102018.78
2023-04-27T14:51:16.816Z,102016.31
2023-04-27T14:53:44.006Z,102008.75
2023-04-27T14:56:13.706Z,102004.69
2023-04-27T14:58:41.101Z,101994.44
2023-04-27T15:01:07.895Z,101995.09
2023-04-27T15:03:35.714Z,101996.13
2023-04-27T15:06:02.617Z,101986.06
2023-04-27T15:08:33.486Z,101992.47
2023-04-27T15:11:00.752Z,101984.69
2023-04-27T15:13:27.875Z,101990.25
2023-04-27T15:15:56.084Z,101987.97
2023-04-27T15:18:24.606Z,101995.56
2023-04-27T15:20:55.224Z,101995.28
2023-04-27T15:23:25.118Z,101991.38
2023-04-27T15:25:54.878Z,101990.19
2023-04-27T15:28:21.875Z,101973.84
2023-04-27T15:30:49.299Z,101967.88
2023-04-27T15:33:16.675Z,101975.69
2023-04-27T15:35:43.381Z,101972.41
2023-04-27T15:38:13.925Z,101964.38
2023-04-27T15:40:40.761Z,101971.56
2023-04-27T15:43:15.862Z,101973.75
2023-04-27T15:45:43.917Z,101969.22
2023-04-27T15:48:14.956Z,101954.91
2023-04-27T15:50:41.478Z,101952.44
2023-04-27T15:53:08.042Z,101955.28
2023-04-27T15:55:34.503Z,101944.09
2023-04-27T15:58:01.136Z,101941.81
2023-04-27T16:00:27.630Z,101949.28
2023-04-27T16:02:54.682Z,101951.91
2023-04-27T16:05:21.534Z,101957.28
2023-04-27T16:07:47.987Z,101942.06
2023-04-27T16:10:14.473Z,101938.00
2023-04-27T16:12:41.014Z,101940.38
2023-04-27T16:15:10.935Z,101942.34
2023-04-27T16:17:38.256Z,101932.00
2023-04-27T16:20:09.413Z,101934.59
2023-04-27T16:22:37.386Z,101922.75
2023-04-27T16:25:09.984Z,101927.28
2023-04-27T16:27:37.835Z,101926.50
2023-04-27T16:30:05.497Z,101916.94
2023-04-27T16:32:35.006Z,101912.84
2023-04-27T16:35:01.954Z,101908.94
2023-04-27T16:37:28.468Z,101908.94
2023-04-27T16:39:55.088Z,101918.53
2023-04-27T16:42:21.718Z,101907.66
2023-04-27T16:44:48.357Z,101901.81
2023-04-27T16:47:14.978Z,101889.97
2023-04-27T16:49:44.722Z,101884.13
2023-04-27T16:52:11.903Z,101872.63
2023-04-27T16:54:39.728Z,101869.69
2023-04-27T16:57:07.889Z,101869.03
2023-04-27T16:59:34.630Z,101860.94
2023-04-27T17:02:09.509Z,101874.38
2023-04-27T17:04:43.674Z,101869.19
2023-04-27T17:07:10.512Z,101872.75
2023-04-27T17:09:37.636Z,101876.66
2023-04-27T17:12:10.756Z,101869.34
2023-04-27T17:14:38.333Z,101878.13
2023-04-27T17:17:06.279Z,101881.34
2023-04-27T17:19:32.800Z,101883.47
2023-04-27T17:21:59.934Z,101887.19
2023-04-27T17:24:29.954Z,101880.34
2023-04-27T17:26:56.452Z,101885.38
2023-04-27T17:29:22.979Z,101888.09
2023-04-27T17:31:50.716Z,101889.88
2023-04-27T17:34:17.331Z,101877.22
2023-04-27T17:36:43.892Z,101873.66
2023-04-27T17:39:12.706Z,101880.31
2023-04-27T17:41:39.591Z,101883.56
2023-04-27T17:44:06.261Z,101874.44
2023-04-27T17:46:33.550Z,101871.50
2023-04-27T17:49:00.125Z,101871.81
2023-04-27T17:51:26.917Z,101874.84
2023-04-27T17:53:54.762Z,101878.97
2023-04-27T17:56:21.297Z,101868.78
2023-04-27T17:58:47.835Z,101882.56
2023-04-27T18:01:14.341Z,101879.13
2023-04-27T18:03:41.915Z,101878.66
2023-04-27T18:06:09.142Z,101864.53
2023-04-27T18:08:35.722Z,101864.69
2023-04-27T18:11:02.300Z,101853.16
2023-04-27T18:13:28.803Z,101858.34
2023-04-27T18:15:55.378Z,101852.47
2023-04-27T18:18:23.958Z,101854.72
2023-04-27T18:20:51.674Z,101844.16
2023-04-27T18:23:18.153Z,101855.47
2023-04-27T18:25:44.681Z,101847.22
2023-04-27T18:28:11.510Z,101855.75
2023-04-27T18:30:38.748Z,101858.13
2023-04-27T18:33:05.381Z,101859.56
2023-04-27T18:35:32.045Z,101857.13
2023-04-27T18:37:58.666Z,101853.06
2023-04-27T18:40:26.074Z,101855.63
2023-04-27T18:42:53.141Z,101872.25
2023-04-27T18:45:19.866Z,101862.22
2023-04-27T18:47:46.363Z,101866.44
2023-04-27T18:50:15.776Z,101861.75
2023-04-27T18:52:42.393Z,101859.78
2023-04-27T18:55:09.389Z,101855.91
2023-04-27T18:57:36.166Z,101861.41
2023-04-27T19:00:05.809Z,101852.78
2023-04-27T19:02:32.976Z,101860.22
2023-04-27T19:05:11.358Z,101851.78
2023-04-27T19:07:39.267Z,101846.50
2023-04-27T19:10:06.684Z,101853.25
2023-04-27T19:12:33.175Z,101852.31
2023-04-27T19:14:59.634Z,101855.03
2023-04-27T19:17:26.205Z,101849.44
2023-04-27T19:19:52.826Z,101851.88
2023-04-27T19:22:19.297Z,101845.75
2023-04-27T19:24:45.806Z,101849.94
2023-04-27T19:27:12.548Z,101851.88
2023-04-27T19:29:51.023Z,101840.50
2023-04-27T19:32:17.623Z,101848.75
2023-04-27T19:34:44.149Z,101835.00
2023-04-27T19:37:10.607Z,101833.38
2023-04-27T19:39:37.317Z,101829.69
2023-04-27T19:42:03.775Z,101842.56
2023-04-27T19:44:31.143Z,101841.56
2023-04-27T19:46:57.628Z,101847.03
2023-04-27T19:49:24.340Z,101841.56
2023-04-27T19:51:50.828Z,101834.44
2023-04-27T19:54:19.565Z,101830.97
2023-04-27T19:56:46.229Z,101825.97
2023-04-27T19:59:12.997Z,101830.16
2023-04-27T20:01:39.429Z,101829.66
2023-04-27T20:04:06.373Z,101826.50
2023-04-27T20:06:34.401Z,101822.13
2023-04-27T20:09:00.927Z,101829.34
2023-04-27T20:11:27.464Z,101817.88
2023-04-27T20:13:53.920Z,101827.22
2023-04-27T20:16:21.562Z,101814.75
2023-04-27T20:18:51.772Z,101817.28
2023-04-27T20:21:18.400Z,101815.88
2023-04-27T20:23:47.547Z,101815.47
2023-04-27T20:26:14.238Z,101811.19
2023-04-27T20:28:40.833Z,101807.44
2023-04-27T20:31:07.466Z,101801.72
2023-04-27T20:33:34.923Z,101799.78
2023-04-27T20:36:14.225Z,101794.41
2023-04-27T20:38:43.529Z,101796.16
2023-04-27T20:41:11.717Z,101788.53
2023-04-27T20:43:40.139Z,101791.38
2023-04-27T20:46:16.415Z,101787.22
2023-04-27T20:48:43.002Z,101783.75
2023-04-27T20:51:09.556Z,101778.78
2023-04-27T20:53:37.362Z,101781.31
2023-04-27T20:56:04.783Z,101767.19
2023-04-27T20:58:31.348Z,101765.84
2023-04-27T21:01:00.253Z,101764.97
2023-04-27T21:03:27.005Z,101765.44
2023-04-27T21:05:53.722Z,101761.91
2023-04-27T21:08:20.190Z,101755.72
2023-04-27T21:10:46.796Z,101752.75
2023-04-27T21:13:31.821Z,101751.22
2023-04-27T21:15:58.794Z,101752.56
2023-04-27T21:18:30.262Z,101739.94
2023-04-27T21:20:57.570Z,101742.19
2023-04-27T21:23:24.113Z,101730.72
2023-04-27T21:25:50.679Z,101737.09
2023-04-27T21:28:17.126Z,101725.72
2023-04-27T21:30:43.717Z,101722.78
2023-04-27T21:33:10.479Z,101719.31
2023-04-27T21:35:37.009Z,101719.09
2023-04-27T21:38:06.445Z,101724.50
2023-04-27T21:40:32.992Z,101718.28
2023-04-27T21:42:59.783Z,101704.38
2023-04-27T21:45:26.816Z,101713.72
2023-04-27T21:47:53.422Z,101708.75
2023-04-27T21:50:20.124Z,101700.53
2023-04-27T21:52:46.821Z,101685.50
2023-04-27T21:55:15.234Z,101680.63
2023-04-27T21:57:41.730Z,101674.06
2023-04-27T22:00:13.268Z,101665.56
2023-04-27T22:02:45.722Z,101659.84
2023-04-27T22:05:14.169Z,101658.53
2023-04-27T22:07:41.422Z,101664.53
2023-04-27T22:10:08.257Z,101659.06
2023-04-27T22:12:34.853Z,101654.78
2023-04-27T22:15:01.392Z,101658.31
2023-04-27T22:17:28.056Z,101656.22
2023-04-27T22:19:54.774Z,101653.16
2023-04-27T22:22:21.214Z,101649.94
2023-04-27T22:24:47.675Z,101655.41
2023-04-27T22:27:14.110Z,101642.31
2023-04-27T22:29:40.673Z,101637.94
2023-04-27T22:32:07.411Z,101636.31
2023-04-27T22:34:34.162Z,101633.56
2023-04-27T22:37:01.986Z,101636.09
2023-04-27T22:39:30.179Z,101628.56
2023-04-27T22:41:56.722Z,101624.72
2023-04-27T22:44:23.206Z,101620.66
2023-04-27T22:46:49.688Z,101613.03
2023-04-27T22:49:17.292Z,101610.91
2023-04-27T22:51:43.747Z,101614.75
2023-04-27T22:54:10.463Z,101609.88
2023-04-27T22:56:36.897Z,101612.31
2023-04-27T22:59:03.432Z,101611.91
2023-04-27T23:01:29.929Z,101610.06
2023-04-27T23:03:56.519Z,101599.94
2023-04-27T23:06:23.029Z,101604.69
2023-04-27T23:08:49.660Z,101609.06
2023-04-27T23:11:18.913Z,101613.19
2023-04-27T23:13:48.095Z,101614.31
2023-04-27T23:16:14.913Z,101616.25
2023-04-27T23:18:41.745Z,101609.66
2023-04-27T23:21:10.205Z,101598.47
2023-04-27T23:23:36.714Z,101603.66
2023-04-27T23:26:03.328Z,101605.88
2023-04-27T23:28:29.727Z,101604.03
2023-04-27T23:30:56.141Z,101600.50
2023-04-27T23:33:22.676Z,101587.69
2023-04-27T23:35:49.316Z,101576.53
2023-04-27T23:38:16.140Z,101573.31
2023-04-27T23:40:42.651Z,101567.84
2023-04-27T23:43:09.142Z,101560.53
2023-04-27T23:45:35.594Z,101545.28
2023-04-27T23:48:02.159Z,101543.66
2023-04-27T23:50:28.639Z,101531.91
2023-04-27T23:52:55.206Z,101533.22
2023-04-27T23:55:21.831Z,101526.22
2023-04-27T23:57:51.656Z,101520.22
